sensor_id;sensor_type;location;lat;lon;timestamp;pressure;altitude;pressure_sealevel;temperature;humidity
41513;BME280;27244;59.940;30.280;2023-03-04T00:00:36;98978.50;;;23.21;24.07
41513;BME280;27244;59.940;30.280;2023-03-04T00:03:09;98979.56;;;23.23;24.02
41513;BME280;27244;59.940;30.280;2023-03-04T00:05:36;98977.25;;;23.22;23.93
41513;BME280;27244;59.940;30.280;2023-03-04T00:08:03;98964.31;;;23.15;23.90
41513;BME280;27244;59.940;30.280;2023-03-04T00:10:30;98965.69;;;23.20;23.82
41513;BME280;27244;59.940;30.280;2023-03-04T00:12:57;98963.66;;;23.20;23.77
41513;BME280;27244;59.940;30.280;2023-03-04T00:15:24;98950.09;;;23.19;23.81
41513;BME280;27244;59.940;30.280;2023-03-04T00:17:51;98944.16;;;23.17;23.82
41513;BME280;27244;59.940;30.280;2023-03-04T00:20:20;98942.41;;;23.19;23.71
41513;BME280;27244;59.940;30.280;2023-03-04T00:22:47;98934.16;;;23.16;23.79
41513;BME280;27244;59.940;30.280;2023-03-04T00:25:14;98934.16;;;23.16;23.54
41513;BME280;27244;59.940;30.280;2023-03-04T00:27:41;98921.38;;;23.15;23.60
41513;BME280;27244;59.940;30.280;2023-03-04T00:30:09;98917.47;;;23.12;23.74
41513;BME280;27244;59.940;30.280;2023-03-04T00:32:36;98871.88;;;22.79;23.38
41513;BME280;27244;59.940;30.280;2023-03-04T00:35:03;98922.31;;;23.12;23.58
41513;BME280;27244;59.940;30.280;2023-03-04T00:37:32;98912.63;;;23.13;23.36
41513;BME280;27244;59.940;30.280;2023-03-04T00:39:59;98911.06;;;23.12;23.36
41513;BME280;27244;59.940;30.280;2023-03-04T00:42:26;98902.34;;;23.10;23.40
41513;BME280;27244;59.940;30.280;2023-03-04T00:44:53;98905.44;;;23.12;23.38
41513;BME280;27244;59.940;30.280;2023-03-04T00:47:20;98899.53;;;23.10;23.34
41513;BME280;27244;59.940;30.280;2023-03-04T00:49:47;98896.25;;;23.11;23.15
41513;BME280;27244;59.940;30.280;2023-03-04T00:52:14;98886.72;;;23.09;23.39
41513;BME280;27244;59.940;30.280;2023-03-04T00:54:44;98882.19;;;23.11;23.25
41513;BME280;27244;59.940;30.280;2023-03-04T00:57:11;98885.47;;;23.10;23.17
41513;BME280;27244;59.940;30.280;2023-03-04T00:59:38;98875.19;;;23.07;23.25
41513;BME280;27244;59.940;30.280;2023-03-04T01:02:08;98873.94;;;23.08;23.33
41513;BME280;27244;59.940;30.280;2023-03-04T01:04:35;98864.41;;;23.05;23.17
41513;BME280;27244;59.940;30.280;2023-03-04T01:07:03;98861.41;;;23.09;23.15
41513;BME280;27244;59.940;30.280;2023-03-04T01:09:30;98849.03;;;23.00;23.22
41513;BME280;27244;59.940;30.280;2023-03-04T01:11:58;98858.31;;;23.07;23.16
41513;BME280;27244;59.940;30.280;2023-03-04T01:14:25;98849.56;;;23.04;23.21
41513;BME280;27244;59.940;30.280;2023-03-04T01:16:52;98851.13;;;23.05;23.05
41513;BME280;27244;59.940;30.280;2023-03-04T01:19:20;98843.66;;;23.02;23.16
41513;BME280;27244;59.940;30.280;2023-03-04T01:21:47;98840.88;;;23.02;23.23
41513;BME280;27244;59.940;30.280;2023-03-04T01:24:14;98840.09;;;23.02;23.10
41513;BME280;27244;59.940;30.280;2023-03-04T01:26:41;98839.03;;;22.99;23.27
41513;BME280;27244;59.940;30.280;2023-03-04T01:29:09;98841.63;;;23.03;23.11
41513;BME280;27244;59.940;30.280;2023-03-04T01:31:36;98830.59;;;22.99;22.99
41513;BME280;27244;59.940;30.280;2023-03-04T01:34:03;98824.19;;;22.99;22.95
41513;BME280;27244;59.940;30.280;2023-03-04T01:36:30;98814.88;;;22.93;23.05
41513;BME280;27244;59.940;30.280;2023-03-04T01:38:57;98816.22;;;22.97;23.02
41513;BME280;27244;59.940;30.280;2023-03-04T01:41:25;98819.03;;;22.97;22.86
41513;BME280;27244;59.940;30.280;2023-03-04T01:43:54;98807.03;;;22.97;22.88
41513;BME280;27244;59.940;30.280;2023-03-04T01:46:23;98796.66;;;22.88;22.81
41513;BME280;27244;59.940;30.280;2023-03-04T01:48:50;98801.41;;;22.97;22.93
41513;BME280;27244;59.940;30.280;2023-03-04T01:51:19;98802.16;;;22.97;22.93
41513;BME280;27244;59.940;30.280;2023-03-04T01:53:48;98798.59;;;22.97;22.92
41513;BME280;27244;59.940;30.280;2023-03-04T01:56:21;98793.72;;;22.97;22.89
41513;BME280;27244;59.940;30.280;2023-03-04T01:59:07;98796.16;;;23.04;22.93
41513;BME280;27244;59.940;30.280;2023-03-04T02:01:37;98796.53;;;22.97;22.80
41513;BME280;27244;59.940;30.280;2023-03-04T02:04:05;98784.53;;;22.97;22.95
41513;BME280;27244;59.940;30.280;2023-03-04T02:06:34;98786.56;;;22.96;22.88
41513;BME280;27244;59.940;30.280;2023-03-04T02:09:03;98786.56;;;22.96;22.93
41513;BME280;27244;59.940;30.280;2023-03-04T02:11:31;98785.78;;;22.96;23.04
41513;BME280;27244;59.940;30.280;2023-03-04T02:13:59;98773.97;;;22.92;22.67
41513;BME280;27244;59.940;30.280;2023-03-04T02:16:26;98785.78;;;22.96;22.81
41513;BME280;27244;59.940;30.280;2023-03-04T02:18:54;98779.38;;;22.95;22.99
41513;BME280;27244;59.940;30.280;2023-03-04T02:21:23;98768.16;;;22.95;22.91
41513;BME280;27244;59.940;30.280;2023-03-04T02:23:57;98770.47;;;22.97;22.92
41513;BME280;27244;59.940;30.280;2023-03-04T02:26:30;98766.59;;;22.94;22.79
41513;BME280;27244;59.940;30.280;2023-03-04T02:28:59;98759.41;;;22.93;23.18
41513;BME280;27244;59.940;30.280;2023-03-04T02:31:29;98759.72;;;22.95;22.89
41513;BME280;27244;59.940;30.280;2023-03-04T02:33:58;98760.19;;;22.94;23.00
41513;BME280;27244;59.940;30.280;2023-03-04T02:36:26;98765.03;;;22.93;23.11
41513;BME280;27244;59.940;30.280;2023-03-04T02:38:56;98756.03;;;22.89;22.85
41513;BME280;27244;59.940;30.280;2023-03-04T02:41:30;98743.50;;;22.90;22.97
41513;BME280;27244;59.940;30.280;2023-03-04T02:43:58;98747.09;;;22.91;22.93
41513;BME280;27244;59.940;30.280;2023-03-04T02:46:26;98736.38;;;22.89;22.93
41513;BME280;27244;59.940;30.280;2023-03-04T02:48:53;98743.50;;;22.90;22.90
41513;BME280;27244;59.940;30.280;2023-03-04T02:51:20;98742.72;;;22.90;22.91
41513;BME280;27244;59.940;30.280;2023-03-04T02:53:47;98732.78;;;22.89;22.88
41513;BME280;27244;59.940;30.280;2023-03-04T02:56:14;98733.25;;;22.87;22.94
41513;BME280;27244;59.940;30.280;2023-03-04T02:58:43;98727.16;;;22.89;23.03
41513;BME280;27244;59.940;30.280;2023-03-04T03:01:10;98725.59;;;22.88;23.08
41513;BME280;27244;59.940;30.280;2023-03-04T03:03:37;98719.19;;;22.87;22.87
41513;BME280;27244;59.940;30.280;2023-03-04T03:06:05;98723.25;;;22.86;23.02
41513;BME280;27244;59.940;30.280;2023-03-04T03:08:32;98713.28;;;22.85;23.04
41513;BME280;27244;59.940;30.280;2023-03-04T03:11:00;98718.41;;;22.87;22.97
41513;BME280;27244;59.940;30.280;2023-03-04T03:13:29;98700.50;;;22.84;23.04
41513;BME280;27244;59.940;30.280;2023-03-04T03:15:57;98712.31;;;22.88;22.87
41513;BME280;27244;59.940;30.280;2023-03-04T03:18:24;98703.09;;;22.88;23.01
41513;BME280;27244;59.940;30.280;2023-03-04T03:20:51;98689.44;;;22.81;22.98
41513;BME280;27244;59.940;30.280;2023-03-04T03:23:18;98702.31;;;22.87;23.01
41513;BME280;27244;59.940;30.280;2023-03-04T03:25:45;98689.25;;;22.84;22.97
41513;BME280;27244;59.940;30.280;2023-03-04T03:28:12;98691.59;;;22.86;23.04
41513;BME280;27244;59.940;30.280;2023-03-04T03:30:39;98682.56;;;22.82;22.96
41513;BME280;27244;59.940;30.280;2023-03-04T03:33:07;98685.97;;;22.86;23.01
41513;BME280;27244;59.940;30.280;2023-03-04T03:35:35;98682.06;;;22.83;22.88
41513;BME280;27244;59.940;30.280;2023-03-04T03:38:02;98677.41;;;22.80;22.89
41513;BME280;27244;59.940;30.280;2023-03-04T03:40:29;98668.72;;;22.78;22.94
41513;BME280;27244;59.940;30.280;2023-03-04T03:42:56;98680.53;;;22.82;23.00
41513;BME280;27244;59.940;30.280;2023-03-04T03:45:23;98678.47;;;22.83;22.88
41513;BME280;27244;59.940;30.280;2023-03-04T03:47:50;98670.81;;;22.83;22.90
41513;BME280;27244;59.940;30.280;2023-03-04T03:50:19;98671.59;;;22.84;22.97
41513;BME280;27244;59.940;30.280;2023-03-04T03:52:46;98662.13;;;22.81;22.92
41513;BME280;27244;59.940;30.280;2023-03-04T03:55:13;98664.41;;;22.83;22.76
41513;BME280;27244;59.940;30.280;2023-03-04T03:57:40;98666.19;;;22.80;22.95
41513;BME280;27244;59.940;30.280;2023-03-04T04:00:08;98661.34;;;22.81;22.83
41513;BME280;27244;59.940;30.280;2023-03-04T04:02:38;98656.50;;;22.81;22.83
41513;BME280;27244;59.940;30.280;2023-03-04T04:05:07;98647.75;;;22.79;22.83
41513;BME280;27244;59.940;30.280;2023-03-04T04:07:36;98656.75;;;22.83;22.85
41513;BME280;27244;59.940;30.280;2023-03-04T04:10:04;98653.69;;;22.81;22.92
41513;BME280;27244;59.940;30.280;2023-03-04T04:12:31;98646.50;;;22.80;23.00
41513;BME280;27244;59.940;30.280;2023-03-04T04:14:58;98638.78;;;22.75;23.03
41513;BME280;27244;59.940;30.280;2023-03-04T04:17:25;98654.94;;;22.80;22.96
41513;BME280;27244;59.940;30.280;2023-03-04T04:19:52;98642.13;;;22.79;22.90
41513;BME280;27244;59.940;30.280;2023-03-04T04:22:19;98643.69;;;22.80;23.09
41513;BME280;27244;59.940;30.280;2023-03-04T04:24:48;98635.97;;;22.75;23.03
41513;BME280;27244;59.940;30.280;2023-03-04T04:27:15;98638.56;;;22.79;22.98
41513;BME280;27244;59.940;30.280;2023-03-04T04:29:42;98640.59;;;22.78;23.04
41513;BME280;27244;59.940;30.280;2023-03-04T04:32:08;98638.28;;;22.77;22.84
41513;BME280;27244;59.940;30.280;2023-03-04T04:34:37;98632.38;;;22.75;23.06
41513;BME280;27244;59.940;30.280;2023-03-04T04:37:04;98632.66;;;22.77;22.91
41513;BME280;27244;59.940;30.280;2023-03-04T04:39:31;98625.69;;;22.72;22.92
41513;BME280;27244;59.940;30.280;2023-03-04T04:42:00;98640.59;;;22.78;22.92
41513;BME280;27244;59.940;30.280;2023-03-04T04:44:27;98632.59;;;22.71;22.84
41513;BME280;27244;59.940;30.280;2023-03-04T04:46:54;98633.16;;;22.75;22.95
41513;BME280;27244;59.940;30.280;2023-03-04T04:49:21;98625.19;;;22.74;23.01
41513;BME280;27244;59.940;30.280;2023-03-04T04:51:57;98632.44;;;22.80;22.89
41513;BME280;27244;59.940;30.280;2023-03-04T04:54:23;98632.38;;;22.75;22.86
41513;BME280;27244;59.940;30.280;2023-03-04T04:56:50;98623.38;;;22.71;22.76
41513;BME280;27244;59.940;30.280;2023-03-04T04:59:19;98632.06;;;22.73;22.88
41513;BME280;27244;59.940;30.280;2023-03-04T05:01:46;98627.22;;;22.73;22.78
41513;BME280;27244;59.940;30.280;2023-03-04T05:04:13;98630.81;;;22.74;22.83
41513;BME280;27244;59.940;30.280;2023-03-04T05:06:40;98630.03;;;22.73;22.78
41513;BME280;27244;59.940;30.280;2023-03-04T05:09:07;98628.47;;;22.72;22.98
41513;BME280;27244;59.940;30.280;2023-03-04T05:11:34;98631.28;;;22.72;22.92
41513;BME280;27244;59.940;30.280;2023-03-04T05:14:01;98633.63;;;22.74;22.85
41513;BME280;27244;59.940;30.280;2023-03-04T05:16:29;98635.19;;;22.75;22.93
41513;BME280;27244;59.940;30.280;2023-03-04T05:18:57;98631.59;;;22.74;22.81
41513;BME280;27244;59.940;30.280;2023-03-04T05:21:24;98628.00;;;22.74;22.83
41513;BME280;27244;59.940;30.280;2023-03-04T05:24:02;98630.16;;;22.79;22.87
41513;BME280;27244;59.940;30.280;2023-03-04T05:26:29;98630.56;;;22.72;23.02
41513;BME280;27244;59.940;30.280;2023-03-04T05:28:56;98630.72;;;22.68;22.99
41513;BME280;27244;59.940;30.280;2023-03-04T05:31:23;98638.19;;;22.71;22.96
41513;BME280;27244;59.940;30.280;2023-03-04T05:33:52;98638.19;;;22.71;22.87
41513;BME280;27244;59.940;30.280;2023-03-04T05:36:19;98628.84;;;22.65;22.79
41513;BME280;27244;59.940;30.280;2023-03-04T05:38:46;98642.25;;;22.70;22.87
41513;BME280;27244;59.940;30.280;2023-03-04T05:41:13;98638.69;;;22.70;22.80
41513;BME280;27244;59.940;30.280;2023-03-04T05:43:40;98640.22;;;22.71;22.89
41513;BME280;27244;59.940;30.280;2023-03-04T05:46:08;98644.28;;;22.70;22.80
41513;BME280;27244;59.940;30.280;2023-03-04T05:48:39;98631.66;;;22.65;22.74
41513;BME280;27244;59.940;30.280;2023-03-04T05:51:07;98643.03;;;22.71;22.83
41513;BME280;27244;59.940;30.280;2023-03-04T05:53:34;98634.97;;;22.64;22.92
41513;BME280;27244;59.940;30.280;2023-03-04T05:56:06;98642.53;;;22.72;22.75
41513;BME280;27244;59.940;30.280;2023-03-04T05:58:33;98640.72;;;22.69;22.80
41513;BME280;27244;59.940;30.280;2023-03-04T06:01:00;98648.88;;;22.67;22.67
41513;BME280;27244;59.940;30.280;2023-03-04T06:03:28;98653.50;;;22.70;22.62
41513;BME280;27244;59.940;30.280;2023-03-04T06:05:55;98642.91;;;22.65;22.66
41513;BME280;27244;59.940;30.280;2023-03-04T06:08:24;98647.09;;;22.70;22.73
41513;BME280;27244;59.940;30.280;2023-03-04T06:10:53;98646.31;;;22.69;22.62
41513;BME280;27244;59.940;30.280;2023-03-04T06:13:21;98647.59;;;22.68;22.65
41513;BME280;27244;59.940;30.280;2023-03-04T06:15:52;98638.84;;;22.66;22.76
41513;BME280;27244;59.940;30.280;2023-03-04T06:18:19;98655.72;;;22.66;22.59
41513;BME280;27244;59.940;30.280;2023-03-04T06:20:47;98649.31;;;22.66;22.57
41513;BME280;27244;59.940;30.280;2023-03-04T06:23:14;98645.25;;;22.67;22.58
41513;BME280;27244;59.940;30.280;2023-03-04T06:25:42;98645.25;;;22.67;22.61
41513;BME280;27244;59.940;30.280;2023-03-04T06:28:09;98642.63;;;22.63;22.67
41513;BME280;27244;59.940;30.280;2023-03-04T06:30:36;98653.88;;;22.63;22.62
41513;BME280;27244;59.940;30.280;2023-03-04T06:33:03;98651.84;;;22.64;22.52
41513;BME280;27244;59.940;30.280;2023-03-04T06:35:32;98651.06;;;22.63;22.45
41513;BME280;27244;59.940;30.280;2023-03-04T06:37:59;98652.31;;;22.62;22.41
41513;BME280;27244;59.940;30.280;2023-03-04T06:40:26;98655.13;;;22.62;22.54
41513;BME280;27244;59.940;30.280;2023-03-04T06:42:55;98660.75;;;22.62;22.53
41513;BME280;27244;59.940;30.280;2023-03-04T06:45:21;98648.72;;;22.62;22.60
41513;BME280;27244;59.940;30.280;2023-03-04T06:47:48;98652.81;;;22.61;22.69
41513;BME280;27244;59.940;30.280;2023-03-04T06:50:16;98650.00;;;22.61;22.66
41513;BME280;27244;59.940;30.280;2023-03-04T06:52:43;98662.00;;;22.61;22.64
41513;BME280;27244;59.940;30.280;2023-03-04T06:55:10;98662.50;;;22.60;22.61
41513;BME280;27244;59.940;30.280;2023-03-04T06:57:37;98663.28;;;22.60;22.72
41513;BME280;27244;59.940;30.280;2023-03-04T07:00:07;98668.13;;;22.60;22.69
41513;BME280;27244;59.940;30.280;2023-03-04T07:02:34;98654.56;;;22.58;22.71
41513;BME280;27244;59.940;30.280;2023-03-04T07:05:01;98669.38;;;22.58;22.71
41513;BME280;27244;59.940;30.280;2023-03-04T07:07:28;98658.91;;;22.59;22.71
41513;BME280;27244;59.940;30.280;2023-03-04T07:09:55;98666.56;;;22.58;22.58
41513;BME280;27244;59.940;30.280;2023-03-04T07:12:21;98668.91;;;22.60;22.47
41513;BME280;27244;59.940;30.280;2023-03-04T07:14:48;98672.19;;;22.58;22.55
41513;BME280;27244;59.940;30.280;2023-03-04T07:17:17;98673.75;;;22.60;22.66
41513;BME280;27244;59.940;30.280;2023-03-04T07:19:44;98672.19;;;22.58;22.55
41513;BME280;27244;59.940;30.280;2023-03-04T07:22:11;98666.00;;;22.54;22.55
41513;BME280;27244;59.940;30.280;2023-03-04T07:24:38;98672.97;;;22.59;22.66
41513;BME280;27244;59.940;30.280;2023-03-04T07:27:05;98671.91;;;22.56;22.44
41513;BME280;27244;59.940;30.280;2023-03-04T07:29:32;98682.66;;;22.58;22.71
41513;BME280;27244;59.940;30.280;2023-03-04T07:31:59;98685.47;;;22.58;22.73
41513;BME280;27244;59.940;30.280;2023-03-04T07:34:27;98691.09;;;22.58;22.71
41513;BME280;27244;59.940;30.280;2023-03-04T07:36:54;98683.94;;;22.57;22.63
41513;BME280;27244;59.940;30.280;2023-03-04T07:39:21;98683.16;;;22.56;22.72
41513;BME280;27244;59.940;30.280;2023-03-04T07:41:48;98688.78;;;22.56;22.60
41513;BME280;27244;59.940;30.280;2023-03-04T07:44:15;98690.03;;;22.55;22.79
41513;BME280;27244;59.940;30.280;2023-03-04T07:46:42;98686.94;;;22.53;22.59
41513;BME280;27244;59.940;30.280;2023-03-04T07:49:11;98681.59;;;22.55;22.60
41513;BME280;27244;59.940;30.280;2023-03-04T07:51:39;98673.56;;;22.48;22.61
41513;BME280;27244;59.940;30.280;2023-03-04T07:54:06;98681.31;;;22.53;22.67
41513;BME280;27244;59.940;30.280;2023-03-04T07:56:33;98686.44;;;22.55;22.62
41513;BME280;27244;59.940;30.280;2023-03-04T07:59:01;98695.72;;;22.61;23.11
41513;BME280;27244;59.940;30.280;2023-03-04T08:01:32;98694.19;;;22.60;23.06
41513;BME280;27244;59.940;30.280;2023-03-04T08:04:00;98695.72;;;22.61;22.80
41513;BME280;27244;59.940;30.280;2023-03-04T08:06:28;98695.91;;;22.57;22.47
41513;BME280;27244;59.940;30.280;2023-03-04T08:08:57;98693.69;;;22.62;22.72
41513;BME280;27244;59.940;30.280;2023-03-04T08:11:25;98688.00;;;22.56;22.70
41513;BME280;27244;59.940;30.280;2023-03-04T08:13:53;98684.59;;;22.52;22.73
41513;BME280;27244;59.940;30.280;2023-03-04T08:16:24;98695.44;;;22.59;22.66
41513;BME280;27244;59.940;30.280;2023-03-04T08:18:53;98691.88;;;22.58;23.03
41513;BME280;27244;59.940;30.280;2023-03-04T08:21:22;98699.50;;;22.58;22.83
41513;BME280;27244;59.940;30.280;2023-03-04T08:23:50;98695.84;;;22.52;22.80
41513;BME280;27244;59.940;30.280;2023-03-04T08:26:21;98696.69;;;22.58;22.80
41513;BME280;27244;59.940;30.280;2023-03-04T08:28:48;98705.94;;;22.73;22.83
41513;BME280;27244;59.940;30.280;2023-03-04T08:31:16;98710.75;;;22.58;22.85
41513;BME280;27244;59.940;30.280;2023-03-04T08:33:44;98706.88;;;22.55;23.05
41513;BME280;27244;59.940;30.280;2023-03-04T08:36:11;98708.63;;;22.53;23.12
41513;BME280;27244;59.940;30.280;2023-03-04T08:38:38;98711.72;;;22.55;23.16
41513;BME280;27244;59.940;30.280;2023-03-04T08:41:06;98705.06;;;22.52;23.08
41513;BME280;27244;59.940;30.280;2023-03-04T08:43:34;98714.25;;;22.53;23.24
41513;BME280;27244;59.940;30.280;2023-03-04T08:46:01;98714.72;;;22.51;23.19
41513;BME280;27244;59.940;30.280;2023-03-04T08:48:29;98712.69;;;22.52;23.29
41513;BME280;27244;59.940;30.280;2023-03-04T08:50:56;98714.72;;;22.51;23.40
41513;BME280;27244;59.940;30.280;2023-03-04T08:53:23;98715.50;;;22.52;23.36
41513;BME280;27244;59.940;30.280;2023-03-04T08:55:51;98715.97;;;22.50;23.33
41513;BME280;27244;59.940;30.280;2023-03-04T08:58:18;98712.69;;;22.52;23.42
41513;BME280;27244;59.940;30.280;2023-03-04T09:00:48;98721.41;;;22.54;23.59
41513;BME280;27244;59.940;30.280;2023-03-04T09:03:16;98720.66;;;22.53;23.55
41513;BME280;27244;59.940;30.280;2023-03-04T09:05:45;98715.22;;;22.50;23.73
41513;BME280;27244;59.940;30.280;2023-03-04T09:08:13;98713.16;;;22.50;23.50
41513;BME280;27244;59.940;30.280;2023-03-04T09:10:40;98719.56;;;22.51;23.81
41513;BME280;27244;59.940;30.280;2023-03-04T09:13:07;98713.16;;;22.50;23.85
41513;BME280;27244;59.940;30.280;2023-03-04T09:15:36;98707.09;;;22.52;23.81
41513;BME280;27244;59.940;30.280;2023-03-04T09:18:05;98705.25;;;22.49;23.93
41513;BME280;27244;59.940;30.280;2023-03-04T09:20:32;98707.34;;;22.54;24.01
41513;BME280;27244;59.940;30.280;2023-03-04T09:22:59;98712.03;;;22.57;24.01
41513;BME280;27244;59.940;30.280;2023-03-04T09:25:26;98706.69;;;22.59;24.17
41513;BME280;27244;59.940;30.280;2023-03-04T09:27:53;98712.13;;;22.63;24.26
41513;BME280;27244;59.940;30.280;2023-03-04T09:30:20;98715.19;;;22.65;24.43
41513;BME280;27244;59.940;30.280;2023-03-04T09:32:47;98702.72;;;22.66;24.56
41513;BME280;27244;59.940;30.280;2023-03-04T09:35:16;98712.53;;;22.70;24.55
41513;BME280;27244;59.940;30.280;2023-03-04T09:37:43;98716.59;;;22.69;24.81
41513;BME280;27244;59.940;30.280;2023-03-04T09:40:15;98709.53;;;22.74;24.80
41513;BME280;27244;59.940;30.280;2023-03-04T09:42:46;98712.06;;;22.72;24.80
41513;BME280;27244;59.940;30.280;2023-03-04T09:45:16;98710.31;;;22.74;24.93
41513;BME280;27244;59.940;30.280;2023-03-04T09:47:45;98714.66;;;22.75;24.96
41513;BME280;27244;59.940;30.280;2023-03-04T09:50:16;98717.47;;;22.75;25.04
41513;BME280;27244;59.940;30.280;2023-03-04T09:52:53;98712.13;;;22.77;24.96
41513;BME280;27244;59.940;30.280;2023-03-04T09:55:31;98714.94;;;22.77;25.36
41513;BME280;27244;59.940;30.280;2023-03-04T09:58:04;98723.38;;;22.77;25.47
41513;BME280;27244;59.940;30.280;2023-03-04T10:00:37;98716.78;;;22.80;25.62
41513;BME280;27244;59.940;30.280;2023-03-04T10:03:14;98725.78;;;22.84;25.53
41513;BME280;27244;59.940;30.280;2023-03-04T10:05:50;98722.97;;;22.84;25.85
41513;BME280;27244;59.940;30.280;2023-03-04T10:08:30;98730.16;;;22.85;25.91
41513;BME280;27244;59.940;30.280;2023-03-04T10:11:01;98725.50;;;22.82;26.05
41513;BME280;27244;59.940;30.280;2023-03-04T10:13:34;98727.34;;;22.85;25.92
41513;BME280;27244;59.940;30.280;2023-03-04T10:16:07;98732.97;;;22.85;25.99
41513;BME280;27244;59.940;30.280;2023-03-04T10:18:38;98731.69;;;22.86;26.11
41513;BME280;27244;59.940;30.280;2023-03-04T10:21:15;98728.59;;;22.84;25.85
41513;BME280;27244;59.940;30.280;2023-03-04T10:23:44;98735.78;;;22.85;26.25
41513;BME280;27244;59.940;30.280;2023-03-04T10:26:16;98738.09;;;22.87;26.19
41513;BME280;27244;59.940;30.280;2023-03-04T10:28:46;98744.50;;;22.87;26.21
41513;BME280;27244;59.940;30.280;2023-03-04T10:31:17;98744.78;;;22.89;26.37
41513;BME280;27244;59.940;30.280;2023-03-04T10:33:47;98744.78;;;22.89;26.37
41513;BME280;27244;59.940;30.280;2023-03-04T10:36:27;98734.03;;;22.88;26.29
41513;BME280;27244;59.940;30.280;2023-03-04T10:39:00;98737.88;;;22.90;26.60
41513;BME280;27244;59.940;30.280;2023-03-04T10:41:32;98738.66;;;22.91;26.52
41513;BME280;27244;59.940;30.280;2023-03-04T10:44:01;98741.00;;;22.92;26.42
41513;BME280;27244;59.940;30.280;2023-03-04T10:46:30;98741.78;;;22.93;26.43
41513;BME280;27244;59.940;30.280;2023-03-04T10:48:58;98741.28;;;22.94;26.49
41513;BME280;27244;59.940;30.280;2023-03-04T10:51:27;98747.69;;;22.95;26.66
41513;BME280;27244;59.940;30.280;2023-03-04T10:53:56;98754.88;;;22.96;26.59
41513;BME280;27244;59.940;30.280;2023-03-04T10:56:32;98749.03;;;22.99;26.57
41513;BME280;27244;59.940;30.280;2023-03-04T10:59:24;98749.63;;;23.03;26.33
41513;BME280;27244;59.940;30.280;2023-03-04T11:01:55;98752.06;;;22.96;26.58
41513;BME280;27244;59.940;30.280;2023-03-04T11:04:22;98748.47;;;22.95;26.55
41513;BME280;27244;59.940;30.280;2023-03-04T11:07:00;98759.03;;;23.00;26.64
41513;BME280;27244;59.940;30.280;2023-03-04T11:09:29;98756.69;;;22.99;26.78
41513;BME280;27244;59.940;30.280;2023-03-04T11:12:01;98745.94;;;22.97;26.76
41513;BME280;27244;59.940;30.280;2023-03-04T11:14:43;98749.72;;;22.94;26.79
41513;BME280;27244;59.940;30.280;2023-03-04T11:17:19;98766.00;;;23.05;26.68
41513;BME280;27244;59.940;30.280;2023-03-04T11:19:50;98769.78;;;23.02;26.77
41513;BME280;27244;59.940;30.280;2023-03-04T11:22:20;98767.41;;;23.15;26.19
41513;BME280;27244;59.940;30.280;2023-03-04T11:25:06;98768.13;;;23.10;26.67
41513;BME280;27244;59.940;30.280;2023-03-04T11:28:01;98772.00;;;23.13;26.58
41513;BME280;27244;59.940;30.280;2023-03-04T11:30:45;98713.59;;;22.73;26.79
41513;BME280;27244;59.940;30.280;2023-03-04T11:33:26;98771.63;;;23.05;26.84
41513;BME280;27244;59.940;30.280;2023-03-04T11:36:01;98741.97;;;22.89;26.88
41513;BME280;27244;59.940;30.280;2023-03-04T11:38:42;98754.94;;;23.01;26.83
41513;BME280;27244;59.940;30.280;2023-03-04T11:41:13;98775.78;;;23.10;26.95
41513;BME280;27244;59.940;30.280;2023-03-04T11:43:49;98759.78;;;23.01;26.96
41513;BME280;27244;59.940;30.280;2023-03-04T11:46:53;98776.84;;;23.12;26.80
41513;BME280;27244;59.940;30.280;2023-03-04T11:49:47;98780.72;;;23.15;26.96
41513;BME280;27244;59.940;30.280;2023-03-04T11:52:27;98772.00;;;23.13;26.93
41513;BME280;27244;59.940;30.280;2023-03-04T11:55:12;98776.38;;;23.14;26.87
41513;BME280;27244;59.940;30.280;2023-03-04T11:57:51;98778.66;;;23.15;27.06
41513;BME280;27244;59.940;30.280;2023-03-04T12:00:32;98786.63;;;23.17;27.02
41513;BME280;27244;59.940;30.280;2023-03-04T12:03:26;98783.81;;;23.17;26.89
41513;BME280;27244;59.940;30.280;2023-03-04T12:06:01;98787.09;;;23.15;27.04
41513;BME280;27244;59.940;30.280;2023-03-04T12:08:50;98784.41;;;23.21;26.91
41513;BME280;27244;59.940;30.280;2023-03-04T12:11:28;98791.78;;;23.18;27.10
41513;BME280;27244;59.940;30.280;2023-03-04T12:14:22;98790.03;;;23.21;26.85
41513;BME280;27244;59.940;30.280;2023-03-04T12:17:20;98786.75;;;23.22;26.70
41513;BME280;27244;59.940;30.280;2023-03-04T12:20:15;98786.44;;;23.20;26.98
41513;BME280;27244;59.940;30.280;2023-03-04T12:22:51;98794.09;;;23.20;27.07
41513;BME280;27244;59.940;30.280;2023-03-04T12:25:50;98793.41;;;23.25;26.89
41513;BME280;27244;59.940;30.280;2023-03-04T12:28:34;98800.03;;;23.22;27.08
41513;BME280;27244;59.940;30.280;2023-03-04T12:31:19;98799.72;;;23.20;27.15
41513;BME280;27244;59.940;30.280;2023-03-04T12:36:50;98801.28;;;23.21;27.21
41513;BME280;27244;59.940;30.280;2023-03-04T12:39:26;98800.69;;;23.17;27.30
41513;BME280;27244;59.940;30.280;2023-03-04T12:42:05;98808.16;;;23.20;27.13
41513;BME280;27244;59.940;30.280;2023-03-04T12:44:40;98814.88;;;23.22;27.25
41513;BME280;27244;59.940;30.280;2023-03-04T12:47:16;98812.06;;;23.22;27.21
41513;BME280;27244;59.940;30.280;2023-03-04T12:50:17;98808.25;;;23.25;27.05
41513;BME280;27244;59.940;30.280;2023-03-04T12:52:52;98808.94;;;23.20;27.20
41513;BME280;27244;59.940;30.280;2023-03-04T12:55:30;98819.22;;;23.23;27.23
41513;BME280;27244;59.940;30.280;2023-03-04T12:57:58;98835.31;;;23.23;27.29
41513;BME280;27244;59.940;30.280;2023-03-04T13:00:34;98820.28;;;23.26;27.40
41513;BME280;27244;59.940;30.280;2023-03-04T13:03:10;98827.44;;;23.27;27.27
41513;BME280;27244;59.940;30.280;2023-03-04T13:06:11;98832.88;;;23.30;27.25
41513;BME280;27244;59.940;30.280;2023-03-04T13:08:50;98829.00;;;23.28;27.25